sensor_id;sensor_type;location;lat;lon;timestamp;pressure;altitude;pressure_sealevel;temperature;humidity
68988;BME280;56038;46.080;11.116;2023-10-31T00:01:17;97756.28;;;12.57;100.00
68988;BME280;56038;46.080;11.116;2023-10-31T00:06:19;97752.44;;;12.50;100.00
68988;BME280;56038;46.080;11.116;2023-10-31T00:11:22;97765.53;;;12.50;100.00
68988;BME280;56038;46.080;11.116;2023-10-31T00:16:24;97784.59;;;12.52;100.00
68988;BME280;56038;46.080;11.116;2023-10-31T00:21:26;97790.91;;;12.50;100.00
68988;BME280;56038;46.080;11.116;2023-10-31T00:26:29;97784.31;;;12.44;100.00
68988;BME280;56038;46.080;11.116;2023-10-31T00:31:31;97768.22;;;12.38;100.00
68988;BME280;56038;46.080;11.116;2023-10-31T00:36:35;97798.47;;;12.42;100.00
68988;BME280;56038;46.080;11.116;2023-10-31T00:41:39;97790.00;;;12.38;100.00
68988;BME280;56038;46.080;11.116;2023-10-31T00:46:44;97788.22;;;12.39;100.00
68988;BME280;56038;46.080;11.116;2023-10-31T00:51:46;97781.31;;;12.38;100.00
68988;BME280;56038;46.080;11.116;2023-10-31T00:56:49;97770.25;;;12.34;100.00
68988;BME280;56038;46.080;11.116;2023-10-31T01:01:51;97779.75;;;12.35;100.00
68988;BME280;56038;46.080;11.116;2023-10-31T01:06:53;97777.97;;;12.36;100.00
68988;BME280;56038;46.080;11.116;2023-10-31T01:11:56;97788.00;;;12.42;100.00
68988;BME280;56038;46.080;11.116;2023-10-31T01:16:58;97776.34;;;12.46;100.00
68988;BME280;56038;46.080;11.116;2023-10-31T01:21:59;97783.88;;;12.50;100.00
68988;BME280;56038;46.080;11.116;2023-10-31T01:27:03;97770.91;;;12.49;100.00
68988;BME280;56038;46.080;11.116;2023-10-31T01:32:05;97784.72;;;12.51;100.00
68988;BME280;56038;46.080;11.116;2023-10-31T01:37:07;97766.38;;;12.51;100.00
68988;BME280;56038;46.080;11.116;2023-10-31T01:42:13;97781.16;;;12.52;100.00
68988;BME280;56038;46.080;11.116;2023-10-31T01:47:17;97786.28;;;12.53;100.00
68988;BME280;56038;46.080;11.116;2023-10-31T01:52:19;97776.50;;;12.55;100.00
68988;BME280;56038;46.080;11.116;2023-10-31T01:57:22;97772.00;;;12.57;100.00
68988;BME280;56038;46.080;11.116;2023-10-31T02:02:25;97774.38;;;12.60;100.00
68988;BME280;56038;46.080;11.116;2023-10-31T02:07:28;97786.44;;;12.63;100.00
68988;BME280;56038;46.080;11.116;2023-10-31T02:12:35;97797.00;;;12.62;100.00
68988;BME280;56038;46.080;11.116;2023-10-31T02:17:37;97785.69;;;12.61;100.00
68988;BME280;56038;46.080;11.116;2023-10-31T02:22:41;97789.91;;;12.64;100.00
68988;BME280;56038;46.080;11.116;2023-10-31T02:27:42;97790.63;;;12.66;100.00
68988;BME280;56038;46.080;11.116;2023-10-31T02:32:44;97771.31;;;12.67;100.00
68988;BME280;56038;46.080;11.116;2023-10-31T02:37:48;97764.91;;;12.71;100.00
68988;BME280;56038;46.080;11.116;2023-10-31T02:42:50;97766.25;;;12.87;100.00
68988;BME280;56038;46.080;11.116;2023-10-31T02:47:52;97742.72;;;12.99;100.00
68988;BME280;56038;46.080;11.116;2023-10-31T02:52:55;97740.09;;;12.99;100.00
68988;BME280;56038;46.080;11.116;2023-10-31T02:57:57;97753.16;;;12.87;100.00
68988;BME280;56038;46.080;11.116;2023-10-31T03:02:58;97754.00;;;12.88;100.00
68988;BME280;56038;46.080;11.116;2023-10-31T03:08:02;97763.63;;;12.87;100.00
68988;BME280;56038;46.080;11.116;2023-10-31T03:13:04;97742.59;;;13.00;100.00
68988;BME280;56038;46.080;11.116;2023-10-31T03:18:05;97745.34;;;13.10;100.00
68988;BME280;56038;46.080;11.116;2023-10-31T03:23:09;97737.38;;;13.11;100.00
68988;BME280;56038;46.080;11.116;2023-10-31T03:28:18;97729.72;;;13.08;100.00
68988;BME280;56038;46.080;11.116;2023-10-31T03:33:20;97737.69;;;13.07;100.00
68988;BME280;56038;46.080;11.116;2023-10-31T03:38:23;97718.75;;;13.03;100.00
68988;BME280;56038;46.080;11.116;2023-10-31T03:43:25;97712.81;;;13.01;100.00
68988;BME280;56038;46.080;11.116;2023-10-31T03:48:27;97711.72;;;13.04;100.00
68988;BME280;56038;46.080;11.116;2023-10-31T03:53:30;97697.31;;;13.09;100.00
68988;BME280;56038;46.080;11.116;2023-10-31T03:58:32;97711.75;;;13.15;100.00
68988;BME280;56038;46.080;11.116;2023-10-31T04:03:34;97667.19;;;13.15;100.00
68988;BME280;56038;46.080;11.116;2023-10-31T04:08:37;97681.56;;;13.09;100.00
68988;BME280;56038;46.080;11.116;2023-10-31T04:13:39;97675.28;;;13.01;100.00
68988;BME280;56038;46.080;11.116;2023-10-31T04:18:41;97664.06;;;12.99;100.00
68988;BME280;56038;46.080;11.116;2023-10-31T04:23:44;97654.31;;;13.01;100.00
68988;BME280;56038;46.080;11.116;2023-10-31T04:28:46;97659.31;;;13.04;100.00
68988;BME280;56038;46.080;11.116;2023-10-31T04:33:47;97648.69;;;13.05;100.00
68988;BME280;56038;46.080;11.116;2023-10-31T04:38:50;97645.00;;;13.08;100.00
68988;BME280;56038;46.080;11.116;2023-10-31T04:43:52;97647.75;;;13.06;100.00
68988;BME280;56038;46.080;11.116;2023-10-31T04:48:54;97640.84;;;13.05;100.00
68988;BME280;56038;46.080;11.116;2023-10-31T04:53:57;97645.13;;;13.06;100.00
68988;BME280;56038;46.080;11.116;2023-10-31T04:58:59;97644.91;;;12.98;100.00
68988;BME280;56038;46.080;11.116;2023-10-31T05:04:00;97634.66;;;12.95;100.00
68988;BME280;56038;46.080;11.116;2023-10-31T05:09:04;97637.84;;;12.87;100.00
68988;BME280;56038;46.080;11.116;2023-10-31T05:14:08;97627.84;;;12.81;100.00
68988;BME280;56038;46.080;11.116;2023-10-31T05:19:10;97655.34;;;12.76;100.00
68988;BME280;56038;46.080;11.116;2023-10-31T05:24:14;97647.97;;;12.70;100.00
68988;BME280;56038;46.080;11.116;2023-10-31T05:29:15;97623.78;;;12.66;100.00
68988;BME280;56038;46.080;11.116;2023-10-31T05:34:17;97645.06;;;12.62;100.00
68988;BME280;56038;46.080;11.116;2023-10-31T05:39:20;97683.78;;;12.58;100.00
68988;BME280;56038;46.080;11.116;2023-10-31T05:44:22;97708.06;;;12.60;100.00
68988;BME280;56038;46.080;11.116;2023-10-31T05:49:24;97692.59;;;12.57;100.00
68988;BME280;56038;46.080;11.116;2023-10-31T05:54:27;97719.59;;;12.57;100.00
68988;BME280;56038;46.080;11.116;2023-10-31T05:59:29;97687.22;;;12.58;100.00
68988;BME280;56038;46.080;11.116;2023-10-31T06:04:30;97686.63;;;12.55;100.00
68988;BME280;56038;46.080;11.116;2023-10-31T06:09:33;97679.72;;;12.54;100.00
68988;BME280;56038;46.080;11.116;2023-10-31T06:14:36;97702.81;;;12.49;100.00
68988;BME280;56038;46.080;11.116;2023-10-31T06:19:38;97724.19;;;12.43;100.00
68988;BME280;56038;46.080;11.116;2023-10-31T06:24:46;97727.63;;;12.32;100.00
68988;BME280;56038;46.080;11.116;2023-10-31T06:29:48;97728.22;;;12.36;100.00
68988;BME280;56038;46.080;11.116;2023-10-31T06:34:50;97748.22;;;12.37;100.00
68988;BME280;56038;46.080;11.116;2023-10-31T06:39:53;97724.66;;;12.37;100.00
68988;BME280;56038;46.080;11.116;2023-10-31T06:44:55;97764.78;;;12.37;100.00
68988;BME280;56038;46.080;11.116;2023-10-31T06:49:57;97765.59;;;12.38;100.00
68988;BME280;56038;46.080;11.116;2023-10-31T06:55:01;97763.09;;;12.36;100.00
68988;BME280;56038;46.080;11.116;2023-10-31T07:00:04;97800.59;;;12.37;100.00
68988;BME280;56038;46.080;11.116;2023-10-31T07:05:08;97816.72;;;12.30;100.00
68988;BME280;56038;46.080;11.116;2023-10-31T07:10:11;97826.09;;;12.22;100.00
68988;BME280;56038;46.080;11.116;2023-10-31T07:15:13;97833.72;;;12.25;100.00
68988;BME280;56038;46.080;11.116;2023-10-31T07:20:15;97814.97;;;12.31;100.00
68988;BME280;56038;46.080;11.116;2023-10-31T07:25:18;97821.34;;;12.27;100.00
68988;BME280;56038;46.080;11.116;2023-10-31T07:30:21;97832.84;;;12.37;100.00
68988;BME280;56038;46.080;11.116;2023-10-31T07:35:23;97862.41;;;12.26;100.00
68988;BME280;56038;46.080;11.116;2023-10-31T07:40:26;97880.22;;;12.21;100.00
68988;BME280;56038;46.080;11.116;2023-10-31T07:45:28;97882.00;;;12.21;100.00
68988;BME280;56038;46.080;11.116;2023-10-31T07:50:29;97876.28;;;12.16;100.00
68988;BME280;56038;46.080;11.116;2023-10-31T07:55:32;97869.78;;;12.09;100.00
68988;BME280;56038;46.080;11.116;2023-10-31T08:00:34;97868.84;;;11.97;100.00
68988;BME280;56038;46.080;11.116;2023-10-31T08:05:36;97898.69;;;11.94;100.00
68988;BME280;56038;46.080;11.116;2023-10-31T08:10:39;97906.00;;;11.77;100.00
68988;BME280;56038;46.080;11.116;2023-10-31T08:15:41;97922.50;;;11.64;100.00
68988;BME280;56038;46.080;11.116;2023-10-31T08:20:43;97912.47;;;11.46;100.00
68988;BME280;56038;46.080;11.116;2023-10-31T08:25:47;97914.25;;;11.58;100.00
68988;BME280;56038;46.080;11.116;2023-10-31T08:30:51;97935.19;;;11.58;100.00
68988;BME280;56038;46.080;11.116;2023-10-31T08:35:53;97951.81;;;11.57;100.00
68988;BME280;56038;46.080;11.116;2023-10-31T08:40:57;97941.44;;;11.43;100.00
68988;BME280;56038;46.080;11.116;2023-10-31T08:45:59;97949.69;;;11.36;100.00
68988;BME280;56038;46.080;11.116;2023-10-31T08:51:02;97976.00;;;11.33;100.00
68988;BME280;56038;46.080;11.116;2023-10-31T08:56:06;97995.03;;;11.23;100.00
68988;BME280;56038;46.080;11.116;2023-10-31T09:01:08;98020.03;;;11.27;100.00
68988;BME280;56038;46.080;11.116;2023-10-31T09:06:10;98038.94;;;11.30;100.00
68988;BME280;56038;46.080;11.116;2023-10-31T09:11:14;98055.94;;;11.37;100.00
68988;BME280;56038;46.080;11.116;2023-10-31T09:16:16;98063.16;;;11.47;100.00
68988;BME280;56038;46.080;11.116;2023-10-31T09:21:17;98082.69;;;11.55;100.00
68988;BME280;56038;46.080;11.116;2023-10-31T09:26:21;98101.63;;;11.59;100.00
68988;BME280;56038;46.080;11.116;2023-10-31T09:31:22;98119.63;;;11.63;100.00
68988;BME280;56038;46.080;11.116;2023-10-31T09:36:24;98133.00;;;11.59;100.00
68988;BME280;56038;46.080;11.116;2023-10-31T09:41:27;98137.09;;;11.63;100.00
68988;BME280;56038;46.080;11.116;2023-10-31T09:46:29;98153.81;;;11.60;100.00
68988;BME280;56038;46.080;11.116;2023-10-31T09:51:31;98173.59;;;11.64;100.00
68988;BME280;56038;46.080;11.116;2023-10-31T09:56:35;98204.53;;;11.72;100.00
68988;BME280;56038;46.080;11.116;2023-10-31T10:01:37;98211.91;;;11.65;100.00
68988;BME280;56038;46.080;11.116;2023-10-31T10:06:40;98205.00;;;11.64;100.00
68988;BME280;56038;46.080;11.116;2023-10-31T10:11:52;98221.16;;;11.71;100.00
68988;BME280;56038;46.080;11.116;2023-10-31T10:16:55;98212.91;;;11.77;100.00
68988;BME280;56038;46.080;11.116;2023-10-31T10:21:58;98210.78;;;11.84;100.00
68988;BME280;56038;46.080;11.116;2023-10-31T10:27:04;98202.38;;;11.79;100.00
68988;BME280;56038;46.080;11.116;2023-10-31T10:32:07;98204.72;;;11.69;100.00
68988;BME280;56038;46.080;11.116;2023-10-31T10:37:10;98199.03;;;11.48;100.00
68988;BME280;56038;46.080;11.116;2023-10-31T10:42:17;98190.13;;;11.38;100.00
68988;BME280;56038;46.080;11.116;2023-10-31T10:47:19;98205.31;;;11.31;100.00
68988;BME280;56038;46.080;11.116;2023-10-31T10:52:28;98205.72;;;11.25;100.00
68988;BME280;56038;46.080;11.116;2023-10-31T10:57:37;98226.72;;;11.24;100.00
68988;BME280;56038;46.080;11.116;2023-10-31T11:02:40;98239.69;;;11.25;100.00
68988;BME280;56038;46.080;11.116;2023-10-31T11:07:59;98241.56;;;11.23;100.00
68988;BME280;56038;46.080;11.116;2023-10-31T11:18:19;98248.47;;;11.24;100.00
68988;BME280;56038;46.080;11.116;2023-10-31T11:23:21;98255.94;;;11.30;100.00
68988;BME280;56038;46.080;11.116;2023-10-31T11:34:26;98290.22;;;11.40;100.00
68988;BME280;56038;46.080;11.116;2023-10-31T11:39:28;98279.28;;;11.48;100.00
68988;BME280;56038;46.080;11.116;2023-10-31T11:44:30;98272.25;;;11.77;100.00
68988;BME280;56038;46.080;11.116;2023-10-31T11:49:48;98257.38;;;11.91;100.00
68988;BME280;56038;46.080;11.116;2023-10-31T11:54:50;98260.38;;;11.99;100.00
68988;BME280;56038;46.080;11.116;2023-10-31T11:59:52;98261.66;;;12.07;100.00
68988;BME280;56038;46.080;11.116;2023-10-31T12:05:08;98274.34;;;12.13;100.00
68988;BME280;56038;46.080;11.116;2023-10-31T12:10:10;98279.84;;;12.22;100.00
68988;BME280;56038;46.080;11.116;2023-10-31T12:15:13;98273.34;;;12.28;100.00
68988;BME280;56038;46.080;11.116;2023-10-31T12:20:16;98266.16;;;12.32;100.00
68988;BME280;56038;46.080;11.116;2023-10-31T12:25:18;98265.06;;;12.61;100.00
68988;BME280;56038;46.080;11.116;2023-10-31T12:30:20;98273.00;;;12.99;100.00
68988;BME280;56038;46.080;11.116;2023-10-31T12:35:25;98295.28;;;13.32;100.00
68988;BME280;56038;46.080;11.116;2023-10-31T12:40:27;98296.06;;;13.96;100.00
68988;BME280;56038;46.080;11.116;2023-10-31T12:45:29;98292.44;;;14.33;100.00
68988;BME280;56038;46.080;11.116;2023-10-31T12:50:33;98307.06;;;14.61;100.00
68988;BME280;56038;46.080;11.116;2023-10-31T12:55:40;98311.78;;;14.69;100.00
68988;BME280;56038;46.080;11.116;2023-10-31T13:00:44;98315.38;;;14.79;100.00
68988;BME280;56038;46.080;11.116;2023-10-31T13:05:48;98321.66;;;14.89;100.00
68988;BME280;56038;46.080;11.116;2023-10-31T13:10:50;98331.75;;;14.83;100.00
68988;BME280;56038;46.080;11.116;2023-10-31T13:15:53;98338.03;;;14.93;100.00
68988;BME280;56038;46.080;11.116;2023-10-31T13:20:56;98357.56;;;15.02;100.00
68988;BME280;56038;46.080;11.116;2023-10-31T13:25:58;98363.25;;;14.95;100.00
68988;BME280;56038;46.080;11.116;2023-10-31T13:31:00;98384.16;;;14.86;100.00
68988;BME280;56038;46.080;11.116;2023-10-31T13:36:05;98393.25;;;14.69;100.00
68988;BME280;56038;46.080;11.116;2023-10-31T13:41:07;98411.59;;;14.58;100.00
68988;BME280;56038;46.080;11.116;2023-10-31T13:46:10;98407.41;;;14.43;100.00
68988;BME280;56038;46.080;11.116;2023-10-31T13:51:13;98420.03;;;14.37;100.00
68988;BME280;56038;46.080;11.116;2023-10-31T13:56:15;98435.59;;;14.28;100.00
68988;BME280;56038;46.080;11.116;2023-10-31T14:01:17;98442.63;;;14.15;100.00
68988;BME280;56038;46.080;11.116;2023-10-31T14:06:26;98457.25;;;14.06;100.00
68988;BME280;56038;46.080;11.116;2023-10-31T14:11:30;98452.41;;;14.13;100.00
68988;BME280;56038;46.080;11.116;2023-10-31T14:16:32;98451.47;;;14.26;100.00
68988;BME280;56038;46.080;11.116;2023-10-31T14:21:35;98467.22;;;14.26;100.00
68988;BME280;56038;46.080;11.116;2023-10-31T14:26:37;98480.78;;;14.20;100.00
68988;BME280;56038;46.080;11.116;2023-10-31T14:31:41;98479.50;;;14.00;100.00
68988;BME280;56038;46.080;11.116;2023-10-31T14:36:44;98480.66;;;13.84;100.00
68988;BME280;56038;46.080;11.116;2023-10-31T14:41:46;98480.22;;;13.64;100.00
68988;BME280;56038;46.080;11.116;2023-10-31T14:46:48;98489.69;;;13.40;100.00
68988;BME280;56038;46.080;11.116;2023-10-31T14:51:51;98493.94;;;13.01;100.00
68988;BME280;56038;46.080;11.116;2023-10-31T14:56:53;98507.09;;;12.87;100.00
68988;BME280;56038;46.080;11.116;2023-10-31T15:01:55;98519.00;;;12.78;100.00
68988;BME280;56038;46.080;11.116;2023-10-31T15:06:58;98538.19;;;12.65;100.00
68988;BME280;56038;46.080;11.116;2023-10-31T15:11:59;98548.03;;;12.47;100.00
68988;BME280;56038;46.080;11.116;2023-10-31T15:17:01;98541.16;;;12.30;100.00
68988;BME280;56038;46.080;11.116;2023-10-31T15:22:04;98552.41;;;12.18;100.00
68988;BME280;56038;46.080;11.116;2023-10-31T15:27:07;98564.63;;;12.03;100.00
68988;BME280;56038;46.080;11.116;2023-10-31T15:32:09;98562.41;;;11.81;100.00
68988;BME280;56038;46.080;11.116;2023-10-31T15:37:13;98576.56;;;11.77;100.00
68988;BME280;56038;46.080;11.116;2023-10-31T15:42:15;98599.88;;;11.66;100.00
68988;BME280;56038;46.080;11.116;2023-10-31T15:47:16;98610.97;;;11.55;100.00
68988;BME280;56038;46.080;11.116;2023-10-31T15:52:20;98612.22;;;11.48;100.00
68988;BME280;56038;46.080;11.116;2023-10-31T15:57:22;98632.66;;;11.42;100.00
68988;BME280;56038;46.080;11.116;2023-10-31T16:02:25;98636.09;;;11.26;100.00
68988;BME280;56038;46.080;11.116;2023-10-31T16:07:28;98636.50;;;11.19;100.00
68988;BME280;56038;46.080;11.116;2023-10-31T16:12:30;98650.00;;;11.11;100.00
68988;BME280;56038;46.080;11.116;2023-10-31T16:17:31;98658.41;;;11.00;100.00
68988;BME280;56038;46.080;11.116;2023-10-31T16:22:34;98658.16;;;10.89;100.00
68988;BME280;56038;46.080;11.116;2023-10-31T16:27:36;98673.03;;;10.87;100.00
68988;BME280;56038;46.080;11.116;2023-10-31T16:32:38;98686.84;;;10.73;100.00
68988;BME280;56038;46.080;11.116;2023-10-31T16:37:41;98701.13;;;10.66;100.00
68988;BME280;56038;46.080;11.116;2023-10-31T16:42:43;98702.47;;;10.58;100.00
68988;BME280;56038;46.080;11.116;2023-10-31T16:47:44;98724.47;;;10.52;100.00
68988;BME280;56038;46.080;11.116;2023-10-31T16:52:51;98748.47;;;10.43;100.00
68988;BME280;56038;46.080;11.116;2023-10-31T16:57:52;98769.44;;;10.41;100.00
68988;BME280;56038;46.080;11.116;2023-10-31T17:02:54;98774.94;;;10.35;100.00
68988;BME280;56038;46.080;11.116;2023-10-31T17:07:57;98780.53;;;10.28;100.00
68988;BME280;56038;46.080;11.116;2023-10-31T17:12:59;98788.50;;;10.25;100.00
68988;BME280;56038;46.080;11.116;2023-10-31T17:18:01;98792.13;;;10.20;100.00
68988;BME280;56038;46.080;11.116;2023-10-31T17:23:07;98810.78;;;10.13;100.00
68988;BME280;56038;46.080;11.116;2023-10-31T17:28:08;98817.00;;;10.10;100.00
68988;BME280;56038;46.080;11.116;2023-10-31T17:33:11;98840.34;;;10.13;100.00
68988;BME280;56038;46.080;11.116;2023-10-31T17:38:15;98846.47;;;10.12;100.00
68988;BME280;56038;46.080;11.116;2023-10-31T17:43:21;98848.59;;;10.04;100.00
68988;BME280;56038;46.080;11.116;2023-10-31T17:48:23;98861.00;;;9.99;100.00
68988;BME280;56038;46.080;11.116;2023-10-31T17:53:26;98862.34;;;9.89;100.00
68988;BME280;56038;46.080;11.116;2023-10-31T17:58:28;98862.47;;;9.86;100.00
68988;BME280;56038;46.080;11.116;2023-10-31T18:03:30;98876.28;;;9.88;100.00
68988;BME280;56038;46.080;11.116;2023-10-31T18:08:33;98877.44;;;9.82;100.00
68988;BME280;56038;46.080;11.116;2023-10-31T18:13:35;98879.03;;;9.85;100.00
68988;BME280;56038;46.080;11.116;2023-10-31T18:18:36;98885.09;;;9.85;100.00
68988;BME280;56038;46.080;11.116;2023-10-31T18:23:40;98904.50;;;9.80;100.00
68988;BME280;56038;46.080;11.116;2023-10-31T18:28:42;98907.22;;;9.77;100.00
68988;BME280;56038;46.080;11.116;2023-10-31T18:33:43;98920.41;;;9.74;100.00
68988;BME280;56038;46.080;11.116;2023-10-31T18:38:47;98927.50;;;9.70;100.00
68988;BME280;56038;46.080;11.116;2023-10-31T18:43:48;98937.38;;;9.64;100.00
68988;BME280;56038;46.080;11.116;2023-10-31T18:48:50;98943.53;;;9.61;100.00
68988;BME280;56038;46.080;11.116;2023-10-31T18:53:53;98953.19;;;9.59;100.00
68988;BME280;56038;46.080;11.116;2023-10-31T18:58:55;98952.41;;;9.57;100.00
68988;BME280;56038;46.080;11.116;2023-10-31T19:03:57;98957.19;;;9.47;100.00
68988;BME280;56038;46.080;11.116;2023-10-31T19:09:00;98975.47;;;9.46;100.00
68988;BME280;56038;46.080;11.116;2023-10-31T19:14:05;98981.69;;;9.43;100.00
68988;BME280;56038;46.080;11.116;2023-10-31T19:19:07;98984.34;;;9.42;100.00
68988;BME280;56038;46.080;11.116;2023-10-31T19:24:10;98986.88;;;9.43;100.00
68988;BME280;56038;46.080;11.116;2023-10-31T19:29:13;98999.28;;;9.38;100.00
68988;BME280;56038;46.080;11.116;2023-10-31T19:34:15;98989.06;;;9.34;100.00
68988;BME280;56038;46.080;11.116;2023-10-31T19:39:18;99003.09;;;9.29;100.00
68988;BME280;56038;46.080;11.116;2023-10-31T19:44:24;99015.47;;;9.24;100.00
68988;BME280;56038;46.080;11.116;2023-10-31T19:49:26;99017.59;;;9.15;100.00
68988;BME280;56038;46.080;11.116;2023-10-31T19:54:29;99031.72;;;9.09;100.00
68988;BME280;56038;46.080;11.116;2023-10-31T19:59:31;99038.69;;;9.09;100.00
68988;BME280;56038;46.080;11.116;2023-10-31T20:04:32;99053.53;;;9.07;100.00
68988;BME280;56038;46.080;11.116;2023-10-31T20:09:36;99053.31;;;9.55;100.00
68988;BME280;56038;46.080;11.116;2023-10-31T20:14:37;99059.50;;;10.15;100.00
68988;BME280;56038;46.080;11.116;2023-10-31T20:19:39;99075.81;;;9.79;100.00
68988;BME280;56038;46.080;11.116;2023-10-31T20:24:43;99083.22;;;9.46;100.00
68988;BME280;56038;46.080;11.116;2023-10-31T20:29:45;99082.31;;;9.25;100.00
68988;BME280;56038;46.080;11.116;2023-10-31T20:34:46;99075.94;;;9.11;100.00
68988;BME280;56038;46.080;11.116;2023-10-31T20:39:50;99077.03;;;9.05;100.00
68988;BME280;56038;46.080;11.116;2023-10-31T20:44:51;99078.22;;;8.96;100.00
68988;BME280;56038;46.080;11.116;2023-10-31T20:49:53;99086.41;;;8.87;100.00
68988;BME280;56038;46.080;11.116;2023-10-31T20:54:56;99090.94;;;8.82;100.00
68988;BME280;56038;46.080;11.116;2023-10-31T20:59:58;99098.97;;;8.76;100.00
68988;BME280;56038;46.080;11.116;2023-10-31T21:05:00;99101.81;;;8.70;100.00
68988;BME280;56038;46.080;11.116;2023-10-31T21:10:03;99109.63;;;8.70;100.00
68988;BME280;56038;46.080;11.116;2023-10-31T21:15:06;99108.88;;;8.66;100.00
68988;BME280;56038;46.080;11.116;2023-10-31T21:20:08;99122.84;;;8.64;100.00
68988;BME280;56038;46.080;11.116;2023-10-31T21:25:12;99132.47;;;8.62;100.00
68988;BME280;56038;46.080;11.116;2023-10-31T21:30:14;99143.00;;;8.59;100.00
68988;BME280;56038;46.080;11.116;2023-10-31T21:35:17;99138.81;;;8.55;100.00
68988;BME280;56038;46.080;11.116;2023-10-31T21:40:20;99148.53;;;8.50;100.00
68988;BME280;56038;46.080;11.116;2023-10-31T21:45:22;99159.16;;;8.44;100.00
68988;BME280;56038;46.080;11.116;2023-10-31T21:50:24;99161.16;;;8.37;100.00
68988;BME280;56038;46.080;11.116;2023-10-31T21:55:27;99173.47;;;8.30;100.00
68988;BME280;56038;46.080;11.116;2023-10-31T22:00:29;99179.78;;;8.23;100.00
68988;BME280;56038;46.080;11.116;2023-10-31T22:05:30;99171.22;;;8.20;100.00
68988;BME280;56038;46.080;11.116;2023-10-31T22:10:34;99179.06;;;8.18;100.00
68988;BME280;56038;46.080;11.116;2023-10-31T22:15:35;99181.00;;;8.13;100.00
68988;BME280;56038;46.080;11.116;2023-10-31T22:20:37;99179.41;;;8.09;100.00
68988;BME280;56038;46.080;11.116;2023-10-31T22:25:40;99194.22;;;8.07;100.00
68988;BME280;56038;46.080;11.116;2023-10-31T22:30:42;99186.34;;;8.08;100.00
68988;BME280;56038;46.080;11.116;2023-10-31T22:35:44;99190.75;;;8.06;100.00
68988;BME280;56038;46.080;11.116;2023-10-31T22:40:48;99200.44;;;8.01;100.00
68988;BME280;56038;46.080;11.116;2023-10-31T22:45:49;99209.31;;;7.96;100.00
68988;BME280;56038;46.080;11.116;2023-10-31T22:50:51;99209.41;;;7.93;100.00
68988;BME280;56038;46.080;11.116;2023-10-31T22:55:54;99211.09;;;7.94;100.00
68988;BME280;56038;46.080;11.116;2023-10-31T23:00:56;99219.09;;;7.88;100.00
68988;BME280;56038;46.080;11.116;2023-10-31T23:05:58;99238.25;;;7.85;100.00
68988;BME280;56038;46.080;11.116;2023-10-31T23:11:01;99238.28;;;7.84;100.00
68988;BME280;56038;46.080;11.116;2023-10-31T23:16:04;99239.25;;;7.81;100.00
68988;BME280;56038;46.080;11.116;2023-10-31T23:21:06;99241.09;;;7.77;100.00
68988;BME280;56038;46.080;11.116;2023-10-31T23:26:09;99244.66;;;7.75;100.00
68988;BME280;56038;46.080;11.116;2023-10-31T23:31:11;99248.94;;;7.76;100.00
68988;BME280;56038;46.080;11.116;2023-10-31T23:36:12;99245.44;;;7.77;100.00
68988;BME280;56038;46.080;11.116;2023-10-31T23:41:15;99253.41;;;7.71;100.00
68988;BME280;56038;46.080;11.116;2023-10-31T23:46:17;99267.66;;;7.59;100.00
68988;BME280;56038;46.080;11.116;2023-10-31T23:51:19;99266.81;;;7.57;100.00
68988;BME280;56038;46.080;11.116;2023-10-31T23:56:22;99273.78;;;7.57;100.00
